Capitol Logistics 203




KMIA
Miami International Airport
Miami, Florida
KRFD
Chicago/Rockford International Airport
Rockford, Illinois

Activity Log

Date Flight Route Aircraft Duration
04/11/2021 CPX203 HEDLY2 HEDLY STYMY ZERBO Q87 VIYAP Q69 GURGE Q93 FISHO Q93 QUIWE BENBY DOOGE Q63 HEVAN BONNT JOT RFD B763 3h 00m
04/03/2021 CPX203 HEDLY2 HEDLY STYMY ZERBO Q87 VIYAP Q69 GURGE Q93 FISHO Q93 QUIWE BENBY DOOGE Q63 HEVAN BONNT JOT RFD B763 3h 16m
02/22/2021 CPX203 WINCO2 WINCO J73 LAL CTY J91 ATL VARNM GLAZR Q118 HEVAN Q118 MZZ JOT B763 2h 58m
02/18/2021 CPX203 WINCO2 WINCO J73 LAL CTY J91 ATL VARNM GLAZR Q118 HEVAN Q118 MZZ JOT B763 2h 50m
02/12/2021 CPX203 WINCO2 WINCO J73 LAL CTY J91 ATL VARNM GLAZR Q118 HEVAN Q118 MZZ JOT B763 3h 04m
02/08/2021 CPX203 WINCO2 WINCO J73 LAL CTY J91 ATL VARNM GLAZR Q118 HEVAN Q118 MZZ JOT B763 3h 04m
02/05/2021 CPX203 WINCO2 WINCO J73 LAL CTY J91 ATL VARNM GLAZR Q118 HEVAN Q118 MZZ JOT B763 3h 14m
01/25/2021 CPX203 WINCO2 WINCO J73 LAL CTY J91 ATL VARNM GLAZR Q118 HEVAN Q118 MZZ JOT B763 3h 02m
11/12/2020 CPX203 HEDLY2 HEDLY EBAYY Q93 PRMUS Q89 ATL J89 OBK B763 3h 04m
04/09/2020 CPX203 KMIA DEEEP2 HEDLY J53 ORL J81 YULEE J45 AMG J46 VXV J99 IIU J89 OBK KRFD B763 3h 31m
01/23/2020 CPX203 WINCO2 WINCO J73 LAL CTY J91 ATL VARNM GLAZR Q118 HEVAN Q118 MZZ JOT B763 2h 58m
01/08/2020 CPX203 WINCO2 WINCO J73 LAL CTY J91 ATL VARNM GLAZR Q118 HEVAN Q118 MZZ JOT B763 3h 16m
12/31/2019 CPX450 WINCO2 WINCO J73 LAL CTY J91 ATL VARNM GLAZR Q118 HEVAN Q118 MZZ JOT B738 3h 06m
12/17/2019 CPX450 WINCO2 WINCO J73 LAL CTY J91 ATL VARNM GLAZR Q118 HEVAN Q118 MZZ JOT B738 4h 08m
11/27/2019 CPX450 WINCO2 WINCO J73 LAL CTY J91 ATL VARNM GLAZR Q118 HEVAN Q118 MZZ JOT B738 3h 25m
07/07/2019 CPX203 WINCO2 WINCO J73 LAL CTY J91 ATL VARNM GLAZR Q118 HEVAN Q118 MZZ JOT B763 2h 58m
03/13/2019 CPX203 WINCO2 WINCO J73 LAL CTY J91 ATL VARNM GLAZR Q118 HEVAN Q118 MZZ JOT B763 2h 58m
01/14/2019 CPX203 HEDLY2 HEDLY STYMY ORL TAY MCN PXV RBS JOT B763 3h 06m
01/14/2019 CPX450 WINCO2 WINCO J73 LAL CTY J91 ATL VARNM GLAZR Q118 HEVAN Q118 MZZ JOT B752 3h 45m
01/02/2019 CPX350 WINCO2 WINCO J73 LAL CTY J91 ATL VARNM GLAZR Q118 HEVAN Q118 MZZ JOT B752 3h 08m
12/18/2018 CPX514 WINCO2 WINCO J73 LAL CTY J91 ATL VARNM GLAZR Q118 HEVAN Q118 MZZ JOT B763 3h 06m
12/14/2018 CPX516 HEDLY2 HEDLY ORL VQQ AMG DBN ODF VXV IIU MACES BVT JOT B763 2h 43m
12/08/2018 CPX350 HEDLY2 HEDLY ORL VQQ AMG DBN ODF VXV IIU MACES BVT JOT B752 2h 20m
11/18/2018 CPX352 WINCO2 WINCO J73 LAL CTY J91 ATL VARNM GLAZR Q118 HEVAN Q118 MZZ JOT QUOTE B752 3h 06m

Route Details

Aircraft Information
Primary: Boeing 767-300BDSF
Backup: Boeing 757-200SF
Route Data
Distance: 1075nm
Duration: 3h 00m
Recm'd Route: HEDLY2 HEDLY STYMY ZERBO Q87 VIYAP Q69 GURGE Q93 FISHO Q93 QUIWE BENBY DOOGE Q63 HEVAN BONNT JOT RFD
Origin Wx: KMIA 180053Z 26006KT 10SM CLR 27/18 A2989 RMK AO2 SLP122 T02670183 $
Dest. Wx: KRFD 180054Z 01007KT 10SM BKN250 12/M01 A2995 RMK AO2 SLP146 T01171011
Notes: